Time;durP1;ratioP1;P1;durP2;ratioP2;P2;SDS_P1;SDS_P2;PMS_P1;PMS_P2;Temp;Humidity;BMP_temperature;BMP_pressure;BME280_temperature;BME280_humidity;BME280_pressure;Samples;Min_cycle;Max_cycle;Signal;HPM_P1;HPM_P2
2022/08/01 00:01:55;;;;;;;6.50;5.65;;;21.70;99.90;;;;;;5004309;28;20299;-68
2022/08/01 00:04:22;;;;;;;9.02;5.90;;;20.40;99.90;;;;;;5050560;28;20205;-68
2022/08/01 00:06:50;;;;;;;7.38;5.70;;;20.50;99.90;;;;;;5032858;28;20215;-68
2022/08/01 00:09:16;;;;;;;8.90;5.75;;;20.40;99.90;;;;;;5042345;28;21258;-68
2022/08/01 00:11:43;;;;;;;11.63;5.97;;;20.40;99.90;;;;;;5036542;28;20205;-68
2022/08/01 00:14:10;;;;;;;7.47;6.53;;;20.30;99.90;;;;;;5041456;28;20193;-68
2022/08/01 00:16:37;;;;;;;11.68;6.53;;;20.30;99.90;;;;;;5045753;28;20676;-68
2022/08/01 00:19:04;;;;;;;7.80;6.60;;;;;;;;;;5007652;28;20255;-68
2022/08/01 00:21:31;;;;;;;8.30;6.20;;;20.30;99.90;;;;;;5031040;28;20237;-67
2022/08/01 00:24:00;;;;;;;13.70;5.95;;;20.30;99.90;;;;;;5028331;28;20580;-68
2022/08/01 00:26:27;;;;;;;8.18;6.10;;;20.20;99.90;;;;;;5026265;28;20205;-68
2022/08/01 00:28:53;;;;;;;7.22;5.22;;;20.30;99.90;;;;;;5022048;28;21128;-68
2022/08/01 00:31:20;;;;;;;6.97;4.93;;;20.40;99.90;;;;;;5031077;28;20945;-67
2022/08/01 00:33:47;;;;;;;8.70;5.75;;;20.30;99.90;;;;;;5020871;28;20895;-68
2022/08/01 00:36:14;;;;;;;10.30;6.03;;;20.30;99.90;;;;;;5027243;28;20206;-68
2022/08/01 00:38:41;;;;;;;8.68;5.10;;;;;;;;;;5029463;28;20878;-68
2022/08/01 00:41:09;;;;;;;6.35;5.20;;;20.30;99.90;;;;;;5036896;28;20203;-68
2022/08/01 00:43:35;;;;;;;6.45;5.00;;;20.30;99.90;;;;;;5028212;28;20603;-68
2022/08/01 00:46:02;;;;;;;9.82;5.05;;;20.30;99.90;;;;;;5030634;28;20210;-68
2022/08/01 00:48:29;;;;;;;8.98;5.65;;;;;;;;;;5039749;28;20197;-68
2022/08/01 00:50:56;;;;;;;8.82;5.82;;;20.40;99.90;;;;;;5018235;28;20213;-69
2022/08/01 00:53:23;;;;;;;7.20;5.88;;;20.20;99.90;;;;;;5032370;28;20193;-69
2022/08/01 00:55:50;;;;;;;6.80;5.78;;;;;;;;;;5026654;28;20890;-69
2022/08/01 00:58:18;;;;;;;11.73;6.50;;;20.30;99.90;;;;;;5025371;28;20834;-69
2022/08/01 01:00:45;;;;;;;12.02;6.13;;;20.30;99.90;;;;;;5040620;28;20200;-69
2022/08/01 01:03:12;;;;;;;11.73;6.50;;;20.20;99.90;;;;;;5024366;28;20205;-69
2022/08/01 01:05:49;;;;;;;9.65;6.38;;;20.20;99.90;;;;;;5006250;28;20492;-69
2022/08/01 01:08:22;;;;;;;7.72;5.72;;;20.30;99.90;;;;;;5026409;28;20204;-69
2022/08/01 01:10:55;;;;;;;6.63;4.70;;;20.30;99.90;;;;;;5025070;28;22995;-69
2022/08/01 01:13:31;;;;;;;6.03;3.80;;;20.30;99.90;;;;;;5028425;28;20197;-69
2022/08/01 01:16:01;;;;;;;4.85;3.88;;;19.80;99.90;;;;;;5035955;28;20211;-69
2022/08/01 01:18:33;;;;;;;3.78;3.38;;;20.20;99.90;;;;;;5028242;28;20233;-67
2022/08/01 01:21:08;;;;;;;3.30;3.00;;;20.30;99.90;;;;;;5005412;28;21019;-68
2022/08/01 01:23:46;;;;;;;3.72;3.25;;;20.20;99.90;;;;;;5044395;28;20228;-68
2022/08/01 01:26:28;;;;;;;5.25;4.07;;;20.20;99.90;;;;;;5047059;28;20208;-68
2022/08/01 01:29:07;;;;;;;4.90;3.58;;;20.40;99.90;;;;;;5026704;28;20965;-68
2022/08/01 01:31:41;;;;;;;4.78;3.85;;;20.20;99.90;;;;;;5034217;28;20205;-68
2022/08/01 01:34:10;;;;;;;4.40;4.00;;;20.20;99.90;;;;;;5046744;28;20187;-68
2022/08/01 01:36:38;;;;;;;7.22;3.78;;;20.30;99.90;;;;;;5010452;28;20208;-68
2022/08/01 01:39:06;;;;;;;4.18;3.78;;;20.20;99.90;;;;;;5050538;28;20248;-68
2022/08/01 01:41:36;;;;;;;5.35;3.83;;;20.00;99.90;;;;;;5032399;28;20217;-68
2022/08/01 01:44:06;;;;;;;4.40;4.00;;;20.20;99.90;;;;;;5037252;28;20266;-68
2022/08/01 01:46:33;;;;;;;5.35;4.30;;;19.80;99.90;;;;;;5041768;28;20208;-68
2022/08/01 01:49:02;;;;;;;5.25;4.75;;;20.20;99.90;;;;;;5035884;28;20205;-68
2022/08/01 01:51:30;;;;;;;8.27;5.60;;;20.20;99.90;;;;;;5010405;28;20224;-68
2022/08/01 01:53:59;;;;;;;5.88;5.30;;;20.20;99.90;;;;;;5048269;28;20205;-68
2022/08/01 01:56:28;;;;;;;7.13;5.68;;;20.10;99.90;;;;;;5045974;28;20201;-68
2022/08/01 01:58:58;;;;;;;6.10;5.50;;;20.20;99.90;;;;;;5026330;28;20229;-68
2022/08/01 02:01:29;;;;;;;5.85;5.35;;;20.10;99.90;;;;;;5031619;28;20209;-69
2022/08/01 02:03:58;;;;;;;4.82;4.43;;;20.10;99.90;;;;;;5035734;28;20207;-69
2022/08/01 02:06:26;;;;;;;5.53;4.55;;;20.20;99.90;;;;;;5021194;28;20211;-69
2022/08/01 02:08:53;;;;;;;5.35;4.40;;;20.10;99.90;;;;;;5037179;28;20204;-68
2022/08/01 02:11:21;;;;;;;6.40;4.90;;;20.00;99.90;;;;;;5046401;28;20205;-68
2022/08/01 02:13:53;;;;;;;5.18;4.68;;;19.90;99.90;;;;;;5020017;28;20301;-68
2022/08/01 02:16:23;;;;;;;7.82;5.40;;;19.90;99.90;;;;;;5037536;28;20205;-68
2022/08/01 02:18:52;;;;;;;8.80;5.32;;;19.90;99.90;;;;;;5032666;28;20229;-68
2022/08/01 02:21:26;;;;;;;5.85;5.20;;;19.90;99.90;;;;;;5037301;28;20241;-68
2022/08/01 02:23:53;;;;;;;5.28;4.63;;;19.90;99.90;;;;;;5041104;28;20592;-68
2022/08/01 02:26:22;;;;;;;7.25;5.95;;;19.70;99.90;;;;;;5042945;28;20197;-68
2022/08/01 02:28:53;;;;;;;7.75;5.40;;;20.00;99.90;;;;;;5030792;28;20193;-68
2022/08/01 02:31:23;;;;;;;6.80;6.10;;;19.80;99.90;;;;;;5028489;28;20597;-69
2022/08/01 02:33:56;;;;;;;6.45;5.38;;;19.80;99.90;;;;;;5034013;28;20724;-68
2022/08/01 02:36:26;;;;;;;5.95;5.35;;;19.70;99.90;;;;;;5042248;28;20201;-68
2022/08/01 02:38:56;;;;;;;7.22;5.68;;;19.70;99.90;;;;;;5021156;28;20225;-68
2022/08/01 02:41:25;;;;;;;7.72;5.63;;;19.70;99.90;;;;;;5040669;28;20761;-68
2022/08/01 02:43:57;;;;;;;9.63;5.78;;;19.90;99.90;;;;;;5022536;28;20721;-68
2022/08/01 02:46:30;;;;;;;7.47;5.70;;;19.70;99.90;;;;;;5029164;28;20204;-68
2022/08/01 02:49:02;;;;;;;6.97;5.70;;;19.70;99.90;;;;;;5030605;28;20224;-68
2022/08/01 02:51:30;;;;;;;8.85;6.18;;;19.70;99.90;;;;;;5027151;28;20547;-68
2022/08/01 02:53:58;;;;;;;6.85;5.30;;;19.70;99.90;;;;;;5017193;28;20878;-68
2022/08/01 02:56:34;;;;;;;5.15;4.40;;;19.70;99.90;;;;;;5043974;28;20808;-68
2022/08/01 02:59:03;;;;;;;8.40;4.95;;;19.70;99.90;;;;;;5030396;28;20228;-68
2022/08/01 03:01:31;;;;;;;5.55;4.30;;;19.70;99.90;;;;;;5028066;28;20209;-68
2022/08/01 03:04:00;;;;;;;5.45;4.43;;;19.70;99.90;;;;;;5029421;28;20207;-68
2022/08/01 03:06:27;;;;;;;12.57;4.32;;;19.60;99.90;;;;;;5048679;28;20208;-68
2022/08/01 03:08:56;;;;;;;8.25;3.88;;;19.60;99.90;;;;;;5026601;28;20216;-68
2022/08/01 03:11:24;;;;;;;5.68;3.58;;;19.60;99.90;;;;;;5016939;28;20212;-68
2022/08/01 03:13:54;;;;;;;5.28;3.80;;;19.50;99.90;;;;;;5045975;28;20283;-69
2022/08/01 03:16:24;;;;;;;4.03;3.10;;;19.50;99.90;;;;;;5011419;28;20544;-68
2022/08/01 03:18:53;;;;;;;4.05;2.97;;;19.70;99.90;;;;;;5032575;28;20595;-68
2022/08/01 03:21:24;;;;;;;3.55;2.83;;;19.60;99.90;;;;;;5042105;28;20200;-68
2022/08/01 03:23:56;;;;;;;4.07;2.90;;;19.40;99.90;;;;;;5028172;28;20205;-68
2022/08/01 03:26:25;;;;;;;5.75;3.05;;;22.60;99.90;;;;;;5018973;28;20216;-68
2022/08/01 03:28:54;;;;;;;3.08;2.40;;;19.40;99.90;;;;;;5042735;28;20212;-68
2022/08/01 03:31:21;;;;;;;4.50;2.70;;;19.20;99.90;;;;;;5023072;28;20204;-69
2022/08/01 03:33:48;;;;;;;7.15;2.83;;;19.30;99.90;;;;;;5003635;28;20391;-68
2022/08/01 03:36:16;;;;;;;4.85;2.33;;;19.40;99.90;;;;;;5048343;28;20200;-68
2022/08/01 03:38:46;;;;;;;2.80;1.98;;;19.40;99.90;;;;;;5032653;28;20928;-68
2022/08/01 03:41:16;;;;;;;3.47;1.95;;;19.30;99.90;;;;;;5025168;28;20233;-69
2022/08/01 03:43:50;;;;;;;5.50;2.10;;;19.30;99.90;;;;;;5050373;28;20662;-69
2022/08/01 03:46:23;;;;;;;6.65;2.10;;;19.30;99.90;;;;;;5019470;28;20200;-68
2022/08/01 03:48:53;;;;;;;1.60;1.50;;;19.40;99.90;;;;;;5044945;28;20729;-69
2022/08/01 03:51:22;;;;;;;2.20;1.65;;;19.30;99.90;;;;;;5031616;28;20207;-68
2022/08/01 03:53:52;;;;;;;2.28;1.50;;;19.30;99.90;;;;;;5029097;28;20201;-68
2022/08/01 03:56:20;;;;;;;3.70;1.42;;;18.70;99.90;;;;;;5042530;28;20208;-69
2022/08/01 03:58:48;;;;;;;4.18;1.50;;;19.30;99.90;;;;;;5020748;28;20673;-69
2022/08/01 04:01:15;;;;;;;1.40;1.20;;;19.30;99.90;;;;;;5017895;28;20200;-68
2022/08/01 04:03:43;;;;;;;4.57;1.52;;;;;;;;;;5032207;28;20232;-68
2022/08/01 04:06:10;;;;;;;1.45;1.10;;;19.20;99.90;;;;;;5020991;28;20205;-68
2022/08/01 04:08:37;;;;;;;1.20;1.10;;;19.20;99.90;;;;;;5052973;28;20205;-69
2022/08/01 04:11:07;;;;;;;3.22;1.20;;;19.20;99.90;;;;;;5045483;28;20205;-68
2022/08/01 04:13:34;;;;;;;2.85;1.65;;;19.10;99.90;;;;;;5008693;28;20220;-68
2022/08/01 04:16:01;;;;;;;2.05;1.20;;;19.10;99.90;;;;;;5020376;28;20214;-68
2022/08/01 04:18:28;;;;;;;2.05;1.17;;;19.10;99.90;;;;;;5037006;28;20209;-69
2022/08/01 04:20:54;;;;;;;4.20;1.42;;;19.10;99.90;;;;;;5019502;28;20225;-69
2022/08/01 04:23:25;;;;;;;3.67;1.60;;;19.10;99.90;;;;;;5050948;28;20257;-68
2022/08/01 04:25:53;;;;;;;3.50;1.45;;;19.10;99.90;;;;;;5048292;28;20865;-68
2022/08/01 04:28:24;;;;;;;2.20;1.10;;;18.80;99.90;;;;;;5030174;28;20208;-69
2022/08/01 04:30:55;;;;;;;1.55;1.10;;;19.10;99.90;;;;;;5022282;28;20697;-68
2022/08/01 04:33:24;;;;;;;3.47;1.45;;;19.00;99.90;;;;;;5048409;28;20193;-69
2022/08/01 04:35:52;;;;;;;2.30;1.50;;;19.00;99.90;;;;;;5011339;28;20258;-70
2022/08/01 04:38:22;;;;;;;4.38;1.60;;;19.00;99.90;;;;;;5050465;28;20205;-68
2022/08/01 04:40:50;;;;;;;2.95;1.35;;;19.20;99.90;;;;;;5045977;28;20239;-69
2022/08/01 04:43:18;;;;;;;2.38;1.90;;;19.00;99.90;;;;;;5011813;28;20282;-68
2022/08/01 04:45:48;;;;;;;2.55;1.70;;;19.10;99.90;;;;;;5048812;28;20203;-69
2022/08/01 04:48:17;;;;;;;5.72;2.08;;;19.00;99.90;;;;;;5032080;28;20209;-69
2022/08/01 04:50:44;;;;;;;6.57;2.38;;;19.00;99.90;;;;;;5019217;28;20246;-68
2022/08/01 04:53:14;;;;;;;6.85;2.47;;;19.00;99.90;;;;;;5040693;28;20305;-68
2022/08/01 04:55:41;;;;;;;7.68;2.60;;;19.00;99.90;;;;;;5051915;28;20200;-68
2022/08/01 04:58:10;;;;;;;5.25;2.60;;;19.10;99.90;;;;;;5016726;28;20310;-68
2022/08/01 05:00:37;;;;;;;10.82;2.67;;;;;;;;;;5045823;28;20262;-68
2022/08/01 05:03:05;;;;;;;6.45;2.33;;;19.00;99.90;;;;;;5035876;28;20209;-68
2022/08/01 05:05:32;;;;;;;9.07;2.30;;;18.90;99.90;;;;;;5030808;28;20235;-68
2022/08/01 05:07:59;;;;;;;8.05;2.80;;;19.00;99.90;;;;;;5018397;28;20231;-69
2022/08/01 05:10:26;;;;;;;5.25;2.35;;;18.80;99.90;;;;;;5042627;28;20201;-68
2022/08/01 05:12:53;;;;;;;5.30;1.98;;;18.80;99.90;;;;;;5030343;28;20267;-68
2022/08/01 05:15:21;;;;;;;5.03;2.35;;;18.80;99.90;;;;;;5024242;28;20673;-69
2022/08/01 05:17:47;;;;;;;12.88;2.95;;;18.80;99.90;;;;;;5025539;28;20201;-68
2022/08/01 05:20:16;;;;;;;13.50;2.88;;;18.40;99.90;;;;;;5047300;28;20972;-68
2022/08/01 05:22:43;;;;;;;8.30;2.65;;;18.50;99.90;;;;;;5039150;28;20235;-69
2022/08/01 05:25:10;;;;;;;12.20;2.65;;;18.50;99.90;;;;;;5026031;28;20554;-68
2022/08/01 05:27:39;;;;;;;9.27;2.50;;;18.30;99.90;;;;;;5032626;28;20212;-68
2022/08/01 05:30:07;;;;;;;6.10;2.05;;;18.20;99.90;;;;;;5028022;28;20282;-68
2022/08/01 05:32:34;;;;;;;10.68;2.33;;;18.10;99.90;;;;;;5022292;28;20203;-68
2022/08/01 05:35:01;;;;;;;9.40;2.72;;;;;;;;;;5043027;28;20196;-68
2022/08/01 05:37:30;;;;;;;12.25;2.40;;;18.20;99.90;;;;;;5043039;28;20207;-68
2022/08/01 05:39:57;;;;;;;5.65;2.60;;;18.10;99.90;;;;;;5020785;28;21282;-68
2022/08/01 05:42:23;;;;;;;9.27;2.67;;;17.90;99.90;;;;;;5047771;28;20224;-68
2022/08/01 05:44:50;;;;;;;9.70;2.85;;;15.30;99.90;;;;;;5037375;28;20558;-68
2022/08/01 05:47:17;;;;;;;5.97;2.53;;;18.10;99.90;;;;;;5026999;28;20216;-69
2022/08/01 05:49:45;;;;;;;10.73;2.60;;;17.80;99.90;;;;;;5036080;28;20209;-68
2022/08/01 05:52:12;;;;;;;11.15;2.35;;;17.90;99.90;;;;;;5034150;28;20200;-68
2022/08/01 05:54:40;;;;;;;10.52;3.05;;;17.90;99.90;;;;;;5011244;28;20237;-68
2022/08/01 05:57:07;;;;;;;13.00;2.72;;;17.60;99.90;;;;;;5048172;28;20203;-67
2022/08/01 05:59:34;;;;;;;10.40;2.70;;;17.70;99.90;;;;;;5019293;28;20718;-68
2022/08/01 06:02:01;;;;;;;9.63;3.05;;;17.50;99.90;;;;;;5015612;28;20200;-68
2022/08/01 06:04:28;;;;;;;12.75;3.20;;;15.30;99.90;;;;;;5031435;28;21013;-68
2022/08/01 06:06:54;;;;;;;6.30;2.83;;;17.60;99.90;;;;;;5030437;28;20206;-68
2022/08/01 06:09:21;;;;;;;8.43;2.80;;;17.60;99.90;;;;;;5029152;28;21073;-68
2022/08/01 06:11:49;;;;;;;9.98;2.85;;;17.60;99.90;;;;;;5032486;28;20589;-68
2022/08/01 06:14:17;;;;;;;12.90;3.53;;;17.80;99.90;;;;;;5036816;28;20201;-68
2022/08/01 06:16:44;;;;;;;5.40;2.53;;;17.50;99.90;;;;;;5025682;28;20250;-68
2022/08/01 06:19:10;;;;;;;13.10;3.33;;;17.40;99.90;;;;;;5017181;28;20836;-69
2022/08/01 06:21:37;;;;;;;7.13;2.63;;;17.60;99.90;;;;;;5031586;28;20268;-68
2022/08/01 06:24:05;;;;;;;7.18;2.58;;;;;;;;;;5032552;28;20207;-69
2022/08/01 06:26:32;;;;;;;14.35;2.60;;;17.60;99.90;;;;;;5021350;28;20201;-68
2022/08/01 06:29:00;;;;;;;6.13;2.83;;;17.60;99.90;;;;;;5039690;28;20206;-68
2022/08/01 06:31:27;;;;;;;9.50;3.00;;;17.80;99.90;;;;;;5040600;28;20205;-68
2022/08/01 06:33:55;;;;;;;10.07;2.97;;;17.60;99.90;;;;;;5022668;28;20212;-68
2022/08/01 06:36:22;;;;;;;8.65;2.60;;;;;;;;;;5037590;28;20236;-68
2022/08/01 06:38:49;;;;;;;13.65;3.10;;;17.60;99.90;;;;;;5048577;28;20197;-68
2022/08/01 06:41:16;;;;;;;13.50;2.65;;;17.70;99.90;;;;;;5023154;28;20240;-68
2022/08/01 06:43:43;;;;;;;11.23;3.08;;;17.60;99.90;;;;;;5039283;28;20219;-68
2022/08/01 06:46:11;;;;;;;9.35;2.75;;;17.50;99.90;;;;;;5041096;28;20204;-68
2022/08/01 06:48:39;;;;;;;7.72;2.40;;;;;;;;;;5049088;28;20200;-68
2022/08/01 06:51:09;;;;;;;17.85;3.75;;;17.80;99.90;;;;;;5023376;28;20300;-68
2022/08/01 06:53:37;;;;;;;10.05;3.13;;;17.60;99.90;;;;;;5020609;28;20219;-68
2022/08/01 06:56:06;;;;;;;10.75;2.65;;;17.60;99.90;;;;;;5038556;28;20214;-72
2022/08/01 06:58:34;;;;;;;7.47;2.50;;;16.40;99.90;;;;;;5044163;28;20208;-68
2022/08/01 07:01:01;;;;;;;9.05;2.83;;;;;;;;;;5041206;28;20236;-70
2022/08/01 07:03:29;;;;;;;11.00;2.78;;;17.50;99.90;;;;;;5029168;28;20867;-68
2022/08/01 07:05:57;;;;;;;13.32;2.35;;;;;;;;;;4999676;28;20247;-69
2022/08/01 07:08:23;;;;;;;18.52;3.45;;;18.50;99.90;;;;;;5015913;28;20204;-68
2022/08/01 07:10:50;;;;;;;9.80;2.80;;;17.50;99.90;;;;;;5024890;28;20240;-68
2022/08/01 07:13:21;;;;;;;12.55;2.70;;;17.70;99.90;;;;;;5020531;28;20216;-68
2022/08/01 07:15:47;;;;;;;9.95;2.67;;;17.50;99.10;;;;;;5040492;28;20227;-68
2022/08/01 07:18:14;;;;;;;13.35;3.53;;;19.80;99.90;;;;;;5041083;28;20205;-68
2022/08/01 07:20:43;;;;;;;16.20;3.33;;;17.70;99.90;;;;;;5033629;22;20228;-68
2022/08/01 07:23:10;;;;;;;11.90;2.63;;;17.60;97.90;;;;;;5026253;28;20947;-69
2022/08/01 07:25:37;;;;;;;9.27;3.08;;;17.60;97.40;;;;;;5007853;28;20408;-68
2022/08/01 07:28:04;;;;;;;10.55;3.08;;;17.50;95.00;;;;;;5006677;28;20202;-67
2022/08/01 07:30:31;;;;;;;6.90;2.78;;;17.50;96.50;;;;;;5013686;28;20428;-68
2022/08/01 07:32:57;;;;;;;11.07;3.15;;;17.50;98.00;;;;;;5008119;28;20209;-68
2022/08/01 07:35:24;;;;;;;13.05;2.67;;;;;;;;;;4982342;28;20910;-68
2022/08/01 07:37:53;;;;;;;14.73;2.75;;;17.70;99.90;;;;;;5018244;28;20868;-68
2022/08/01 07:40:21;;;;;;;15.85;3.13;;;17.90;99.60;;;;;;4994839;28;20318;-68
2022/08/01 07:42:48;;;;;;;11.48;3.55;;;17.90;94.90;;;;;;5007793;28;20206;-68
2022/08/01 07:45:15;;;;;;;9.18;2.67;;;;;;;;;;5010648;28;20194;-69
2022/08/01 07:47:42;;;;;;;9.98;2.30;;;17.70;90.10;;;;;;4998516;28;20848;-69
2022/08/01 07:50:09;;;;;;;13.88;3.03;;;17.60;90.00;;;;;;5006338;28;20221;-69
2022/08/01 07:52:37;;;;;;;8.32;2.63;;;;;;;;;;5003759;28;20274;-68
2022/08/01 07:55:06;;;;;;;10.52;2.30;;;17.70;90.40;;;;;;4991048;28;20229;-69
2022/08/01 07:57:33;;;;;;;12.40;2.60;;;17.70;91.60;;;;;;5009805;28;20751;-68
2022/08/01 08:00:01;;;;;;;11.70;2.42;;;17.60;91.70;;;;;;5001067;28;20212;-69
2022/08/01 08:02:28;;;;;;;11.13;2.67;;;17.60;87.90;;;;;;5001998;28;20419;-68
2022/08/01 08:04:54;;;;;;;16.67;3.30;;;17.90;93.50;;;;;;5021869;28;20204;-68
2022/08/01 08:07:21;;;;;;;7.75;2.30;;;17.80;88.10;;;;;;4993525;28;20216;-69
2022/08/01 08:09:48;;;;;;;4.95;1.83;;;18.00;90.80;;;;;;5005646;28;20213;-68
2022/08/01 08:12:16;;;;;;;10.65;2.88;;;17.90;91.30;;;;;;4985257;28;20233;-68
2022/08/01 08:14:43;;;;;;;8.40;2.55;;;17.70;89.00;;;;;;5022566;28;20197;-68
2022/08/01 08:17:10;;;;;;;8.27;2.15;;;17.90;92.80;;;;;;5008058;28;20198;-68
2022/08/01 08:19:38;;;;;;;12.40;2.92;;;;;;;;;;5012717;28;20506;-68
2022/08/01 08:22:06;;;;;;;8.07;2.28;;;18.70;93.20;;;;;;4972198;28;21727;-68
2022/08/01 08:24:32;;;;;;;11.07;2.40;;;18.40;84.80;;;;;;5021231;28;21724;-68
2022/08/01 08:27:00;;;;;;;10.57;2.58;;;18.30;67.40;;;;;;4988868;28;20698;-68
2022/08/01 08:29:32;;;;;;;5.30;1.90;;;18.20;53.90;;;;;;5007685;28;20206;-68
2022/08/01 08:32:00;;;;;;;12.52;2.10;;;18.20;55.80;;;;;;5012565;28;20326;-68
2022/08/01 08:34:28;;;;;;;9.65;2.13;;;17.80;74.00;;;;;;5000049;28;20221;-69
2022/08/01 08:36:56;;;;;;;6.13;2.05;;;18.50;72.00;;;;;;4996086;28;20887;-68
2022/08/01 08:39:23;;;;;;;10.75;2.38;;;18.50;65.00;;;;;;4989100;28;20813;-68
2022/08/01 08:41:50;;;;;;;7.07;2.50;;;;;;;;;;4999216;28;20233;-68
2022/08/01 08:44:18;;;;;;;10.13;1.73;;;18.50;53.10;;;;;;4987494;28;20241;-68
2022/08/01 08:46:47;;;;;;;8.43;2.47;;;18.50;58.20;;;;;;5014748;28;20209;-67
2022/08/01 08:49:18;;;;;;;6.60;1.88;;;18.20;38.70;;;;;;4997225;28;20557;-67
2022/08/01 08:51:49;;;;;;;14.77;2.25;;;18.10;31.10;;;;;;5020664;28;20220;-67
2022/08/01 08:54:17;;;;;;;7.88;1.88;;;18.30;51.30;;;;;;4972220;28;20226;-67
2022/08/01 08:56:44;;;;;;;4.80;1.70;;;18.30;36.70;;;;;;4992290;28;20232;-67
2022/08/01 08:59:13;;;;;;;12.60;2.80;;;18.30;37.80;;;;;;4990174;28;20209;-67
2022/08/01 09:01:41;;;;;;;20.25;2.42;;;18.50;26.30;;;;;;4997177;28;20229;-68
2022/08/01 09:04:09;;;;;;;12.48;2.35;;;18.30;24.60;;;;;;4989338;28;20221;-69
2022/08/01 09:06:36;;;;;;;5.88;1.63;;;18.30;32.30;;;;;;5008109;28;20212;-68
2022/08/01 09:09:04;;;;;;;8.93;2.15;;;18.40;28.00;;;;;;5000299;28;20229;-67
2022/08/01 09:11:31;;;;;;;12.00;1.83;;;18.30;32.90;;;;;;5001080;28;20522;-68
2022/08/01 09:14:06;;;;;;;13.85;2.35;;;18.20;30.90;;;;;;4997668;28;20198;-71
2022/08/01 09:16:34;;;;;;;8.90;1.85;;;18.20;36.30;;;;;;5008734;28;20806;-68
2022/08/01 09:19:14;;;;;;;9.13;2.15;;;18.20;44.80;;;;;;5006118;28;20197;-68
2022/08/01 09:21:55;;;;;;;8.02;2.85;;;18.40;34.40;;;;;;5008755;28;20225;-67
2022/08/01 09:24:23;;;;;;;10.00;2.25;;;16.70;29.40;;;;;;4991562;28;20915;-67
2022/08/01 09:26:51;;;;;;;8.60;2.17;;;18.50;28.60;;;;;;5021961;28;20209;-67
2022/08/01 09:29:22;;;;;;;10.50;2.47;;;18.10;10.60;;;;;;4992593;28;20233;-68
2022/08/01 09:31:50;;;;;;;12.80;2.20;;;18.40;8.50;;;;;;5024156;28;20809;-68
2022/08/01 09:34:25;;;;;;;5.53;1.85;;;18.20;15.80;;;;;;5009578;28;20212;-67
2022/08/01 09:36:55;;;;;;;18.33;2.50;;;18.50;1.00;;;;;;4994324;28;20231;-68
2022/08/01 09:39:24;;;;;;;10.23;2.45;;;18.70;11.80;;;;;;5018830;28;20224;-67
2022/08/01 09:41:51;;;;;;;7.45;1.90;;;18.70;19.90;;;;;;4977291;28;20248;-68
2022/08/01 09:44:20;;;;;;;10.40;2.03;;;18.70;21.10;;;;;;5011764;28;20209;-66
2022/08/01 09:46:51;;;;;;;7.20;3.10;;;18.70;20.80;;;;;;5002168;28;21030;-67
2022/08/01 09:49:29;;;;;;;7.80;1.70;;;18.70;12.30;;;;;;4991392;28;20205;-66
2022/08/01 09:51:57;;;;;;;16.48;2.05;;;18.70;12.30;;;;;;5007749;28;20197;-67
2022/08/01 09:54:32;;;;;;;8.20;2.33;;;18.70;5.70;;;;;;5015226;28;20352;-66
2022/08/01 09:57:10;;;;;;;9.68;1.80;;;18.90;7.90;;;;;;4997004;28;20213;-67
2022/08/01 09:59:40;;;;;;;6.45;1.80;;;;;;;;;;5009633;28;20229;-68
2022/08/01 10:02:08;;;;;;;8.75;2.08;;;18.80;22.40;;;;;;5007127;28;21304;-68
2022/08/01 10:04:36;;;;;;;10.70;2.10;;;18.80;15.30;;;;;;4989459;28;20228;-67
2022/08/01 10:07:07;;;;;;;4.43;1.52;;;18.80;24.60;;;;;;5017450;28;20224;-68
2022/08/01 10:09:36;;;;;;;15.60;2.08;;;18.50;1.00;;;;;;5001143;28;20979;-67
2022/08/01 10:12:04;;;;;;;7.50;1.75;;;18.70;1.00;;;;;;4996598;28;20240;-66
2022/08/01 10:14:32;;;;;;;5.97;2.00;;;18.80;1.00;;;;;;5000673;28;20934;-66
2022/08/01 10:17:01;;;;;;;7.13;2.10;;;17.10;7.50;;;;;;5048898;22;20224;-68
2022/08/01 10:19:29;;;;;;;8.48;2.00;;;18.50;1.00;;;;;;5038657;28;20229;-67
2022/08/01 10:21:58;;;;;;;7.43;1.58;;;19.00;1.00;;;;;;5027942;28;20422;-66
2022/08/01 10:24:27;;;;;;;9.50;1.75;;;19.00;1.00;;;;;;5027786;28;20200;-66
2022/08/01 10:26:59;;;;;;;14.95;2.42;;;18.90;1.00;;;;;;5046548;28;20228;-67
2022/08/01 10:29:27;;;;;;;6.95;2.05;;;18.90;1.00;;;;;;5010552;28;20445;-67
2022/08/01 10:31:54;;;;;;;6.75;1.55;;;18.70;1.00;;;;;;5033180;28;20213;-65
2022/08/01 10:34:22;;;;;;;12.23;2.80;;;;;;;;;;5022776;28;20528;-67
2022/08/01 10:36:50;;;;;;;9.45;1.75;;;18.90;15.90;;;;;;5050868;28;20200;-66
2022/08/01 10:39:19;;;;;;;12.60;2.38;;;18.90;16.40;;;;;;5030778;28;20235;-67
2022/08/01 10:41:47;;;;;;;5.25;1.67;;;18.80;1.00;;;;;;5049852;28;20232;-66
2022/08/01 10:44:14;;;;;;;8.55;3.00;;;18.90;1.00;;;;;;5017506;28;20733;-66
2022/08/01 10:46:49;;;;;;;8.40;1.55;;;18.90;1.00;;;;;;5021725;28;20669;-67
2022/08/01 10:49:19;;;;;;;9.43;1.90;;;19.00;1.00;;;;;;5039380;28;20196;-66
2022/08/01 10:51:46;;;;;;;5.82;1.50;;;19.00;2.00;;;;;;5033455;28;20205;-66
2022/08/01 10:54:14;;;;;;;5.18;1.75;;;19.00;1.00;;;;;;5027066;28;20445;-66
2022/08/01 10:56:45;;;;;;;5.05;1.42;;;19.00;1.00;;;;;;5042753;28;20200;-66
2022/08/01 10:59:15;;;;;;;3.92;1.60;;;19.00;1.00;;;;;;5022575;28;20208;-66
2022/08/01 11:01:42;;;;;;;3.63;1.48;;;19.00;1.00;;;;;;5011009;28;20233;-65
2022/08/01 11:04:12;;;;;;;7.07;1.75;;;19.10;1.00;;;;;;5032839;28;20215;-65
2022/08/01 11:06:58;;;;;;;4.43;1.63;;;19.30;1.00;;;;;;5026952;28;20918;-66
2022/08/01 11:09:29;;;;;;;5.38;1.75;;;;;;;;;;5020417;28;20201;-65
2022/08/01 11:12:05;;;;;;;9.45;2.25;;;19.20;1.00;;;;;;5032335;28;20225;-66
2022/08/01 11:14:32;;;;;;;9.70;1.65;;;19.20;1.00;;;;;;5022132;28;20239;-66
2022/08/01 11:20:10;;;;;;;5.97;1.50;;;19.20;1.00;;;;;;5051405;22;20232;-66
2022/08/01 11:23:27;;;;;;;8.50;2.90;;;19.00;1.00;;;;;;5053847;28;20511;-66
2022/08/01 11:26:24;;;;;;;5.30;1.75;;;18.80;1.00;;;;;;5066787;28;20196;-66
2022/08/01 11:29:15;;;;;;;7.25;1.20;;;18.80;1.00;;;;;;5039991;28;20204;-65
2022/08/01 11:31:42;;;;;;;5.13;1.88;;;19.10;1.00;;;;;;5053954;28;21087;-66
2022/08/01 11:34:09;;;;;;;7.43;1.48;;;18.90;1.00;;;;;;5039278;28;20201;-66
2022/08/01 11:36:37;;;;;;;5.80;1.63;;;19.10;1.00;;;;;;5026123;28;20221;-65
2022/08/01 11:39:17;;;;;;;7.68;1.75;;;19.00;1.00;;;;;;5016689;28;20484;-66
2022/08/01 11:41:47;;;;;;;5.50;1.73;;;18.80;1.00;;;;;;5025273;28;20220;-65
2022/08/01 11:44:18;;;;;;;4.72;1.48;;;18.40;1.00;;;;;;5012655;28;20213;-65
2022/08/01 11:46:56;;;;;;;7.25;2.10;;;18.80;1.00;;;;;;5033102;28;20213;-64
2022/08/01 11:49:25;;;;;;;11.65;1.83;;;19.00;1.00;;;;;;5025478;28;20197;-65
2022/08/01 11:51:59;;;;;;;6.47;1.80;;;18.80;1.00;;;;;;5013287;28;20204;-65
2022/08/01 11:54:27;;;;;;;5.43;1.80;;;19.00;1.00;;;;;;5029249;28;20232;-65
2022/08/01 11:56:57;;;;;;;4.88;1.70;;;18.90;1.00;;;;;;5009232;28;20232;-66
2022/08/01 11:59:26;;;;;;;9.18;1.52;;;19.30;41.90;;;;;;5009987;28;21247;-65
2022/08/01 12:01:53;;;;;;;6.32;1.58;;;18.80;1.00;;;;;;5009217;28;20224;-65
2022/08/01 12:04:20;;;;;;;3.65;1.60;;;19.00;1.00;;;;;;5025883;28;20756;-65
2022/08/01 12:06:48;;;;;;;4.55;1.65;;;;;;;;;;5022724;28;20205;-64
2022/08/01 12:09:24;;;;;;;7.47;1.60;;;19.20;1.00;;;;;;5011533;28;20326;-65
2022/08/01 12:11:51;;;;;;;7.75;1.85;;;19.20;1.00;;;;;;5021972;28;20299;-64
2022/08/01 12:14:20;;;;;;;5.90;1.60;;;19.10;99.90;;;;;;5042180;28;20207;-64
2022/08/01 12:16:55;;;;;;;5.50;1.73;;;18.90;99.90;;;;;;5015627;28;20221;-64
2022/08/01 12:19:22;;;;;;;9.45;2.15;;;;;;;;;;5033511;28;20799;-65
2022/08/01 12:22:09;;;;;;;6.50;2.20;;;19.10;1.00;;;;;;5020550;28;20221;-65
2022/08/01 12:24:36;;;;;;;7.70;1.77;;;19.10;1.00;;;;;;5022099;28;20216;-65
2022/08/01 12:27:03;;;;;;;4.50;1.80;;;19.20;1.00;;;;;;5019267;28;20468;-64
2022/08/01 12:29:39;;;;;;;6.35;1.55;;;19.10;1.00;;;;;;5032283;28;20193;-65
2022/08/01 12:32:22;;;;;;;4.25;1.77;;;19.10;1.00;;;;;;5026688;22;20356;-65
2022/08/01 12:34:49;;;;;;;13.57;1.90;;;17.80;1.00;;;;;;5042096;28;20227;-65
2022/08/01 12:37:17;;;;;;;7.70;1.65;;;19.20;99.90;;;;;;5035101;28;20757;-65
2022/08/01 12:39:44;;;;;;;7.40;1.50;;;18.30;99.90;;;;;;5028297;28;20230;-63
2022/08/01 12:42:12;;;;;;;6.50;1.73;;;19.40;99.90;;;;;;5035887;28;20549;-64
2022/08/01 12:44:40;;;;;;;6.05;1.90;;;19.20;1.00;;;;;;5054557;28;20800;-64
2022/08/01 12:47:09;;;;;;;6.55;1.95;;;19.00;99.90;;;;;;5026126;28;20231;-64
2022/08/01 12:49:37;;;;;;;5.70;1.58;;;19.10;1.00;;;;;;5044992;28;20223;-64
2022/08/01 12:52:06;;;;;;;3.20;1.35;;;19.00;1.00;;;;;;5038816;28;20303;-64
2022/08/01 12:55:11;;;;;;;3.08;1.50;;;19.10;1.00;;;;;;5040360;28;20214;-63
2022/08/01 12:57:40;;;;;;;5.53;1.77;;;19.10;99.90;;;;;;5055905;28;20243;-65
2022/08/01 13:00:22;;;;;;;10.07;1.85;;;19.00;99.90;;;;;;5046443;28;20721;-64
2022/08/01 13:02:52;;;;;;;10.25;2.13;;;19.10;1.00;;;;;;5025742;28;20280;-65
2022/08/01 13:05:18;;;;;;;4.97;1.73;;;19.10;1.00;;;;;;5054436;28;20208;-65
2022/08/01 13:07:48;;;;;;;5.45;1.30;;;19.30;1.00;;;;;;5041579;28;20206;-64